Time;durP1;ratioP1;P1;durP2;ratioP2;P2;SDS_P1;SDS_P2;PMS_P1;PMS_P2;Temp;Humidity;BMP_temperature;BMP_pressure;BME280_temperature;BME280_humidity;BME280_pressure;Samples;Min_cycle;Max_cycle;Signal;HPM_P1;HPM_P2
2023/06/01 00:02:01;;;;;;;12.50;7.87;;;13.40;99.90;;;;;;5071931;28;20231;-62
2023/06/01 00:04:28;;;;;;;10.53;7.20;;;13.20;99.90;;;;;;5077530;28;20225;-62
2023/06/01 00:06:56;;;;;;;14.90;7.40;;;13.10;99.90;;;;;;5075308;28;20279;-63
2023/06/01 00:09:23;;;;;;;11.67;7.63;;;13.10;99.90;;;;;;5074654;28;20576;-62
2023/06/01 00:11:50;;;;;;;12.73;7.53;;;13.00;99.90;;;;;;5074602;28;20248;-62
2023/06/01 00:14:16;;;;;;;14.33;7.83;;;13.10;99.90;;;;;;5071034;28;20202;-62
2023/06/01 00:16:44;;;;;;;14.67;7.73;;;13.00;99.90;;;;;;5073233;28;20215;-64
2023/06/01 00:19:11;;;;;;;11.20;7.23;;;12.80;99.90;;;;;;5075880;28;20663;-61
2023/06/01 00:21:38;;;;;;;10.97;7.47;;;12.80;99.90;;;;;;5073600;28;20603;-62
2023/06/01 00:24:06;;;;;;;15.07;7.97;;;12.80;99.90;;;;;;5068734;28;20207;-61
2023/06/01 00:26:33;;;;;;;12.83;8.13;;;12.80;99.90;;;;;;5076026;28;20381;-63
2023/06/01 00:29:00;;;;;;;15.90;8.40;;;12.70;99.90;;;;;;5057797;28;20296;-62
2023/06/01 00:31:27;;;;;;;12.10;8.23;;;12.70;99.90;;;;;;5073680;28;20245;-62
2023/06/01 00:33:54;;;;;;;13.03;8.13;;;12.70;99.90;;;;;;5068972;28;20721;-61
2023/06/01 00:36:21;;;;;;;13.67;8.60;;;12.70;99.90;;;;;;5075841;28;20777;-63
2023/06/01 00:38:48;;;;;;;15.23;8.33;;;12.70;99.90;;;;;;5069572;28;20269;-62
2023/06/01 00:41:15;;;;;;;12.47;7.50;;;12.60;99.90;;;;;;5072941;28;20244;-61
2023/06/01 00:43:42;;;;;;;16.30;8.33;;;12.50;99.90;;;;;;5074404;28;20283;-62
2023/06/01 00:46:09;;;;;;;15.20;8.30;;;12.40;99.90;;;;;;5071586;28;20561;-62
2023/06/01 00:48:37;;;;;;;15.07;8.10;;;12.50;99.90;;;;;;5062252;28;20199;-61
2023/06/01 00:51:04;;;;;;;11.27;7.50;;;12.40;99.90;;;;;;5072379;28;20558;-61
2023/06/01 00:53:31;;;;;;;13.67;8.17;;;12.30;99.90;;;;;;5065934;28;20208;-63
2023/06/01 00:55:58;;;;;;;14.57;7.80;;;12.30;99.90;;;;;;5069347;28;20195;-61
2023/06/01 00:58:25;;;;;;;12.37;7.50;;;12.20;99.90;;;;;;5069062;28;20207;-62
2023/06/01 01:00:53;;;;;;;12.53;7.70;;;12.20;99.90;;;;;;5073465;28;20238;-61
2023/06/01 01:03:21;;;;;;;12.67;8.10;;;12.10;99.90;;;;;;5052441;28;20201;-61
2023/06/01 01:05:50;;;;;;;11.50;7.27;;;12.20;99.90;;;;;;5071967;28;20305;-61
2023/06/01 01:08:20;;;;;;;13.03;7.40;;;12.20;99.90;;;;;;5075594;28;20293;-61
2023/06/01 01:11:06;;;;;;;13.30;7.53;;;12.30;99.90;;;;;;5072666;28;20801;-61
2023/06/01 01:14:13;;;;;;;11.20;6.60;;;12.20;99.90;;;;;;5073214;28;20361;-60
2023/06/01 01:16:53;;;;;;;14.07;7.27;;;11.90;99.90;;;;;;5073037;28;20689;-60
2023/06/01 01:19:24;;;;;;;10.47;6.87;;;12.00;99.90;;;;;;5075597;28;20769;-61
2023/06/01 01:22:20;;;;;;;12.53;8.07;;;12.00;99.90;;;;;;5078409;28;20221;-61
2023/06/01 01:24:59;;;;;;;12.03;7.30;;;12.10;99.90;;;;;;5074316;28;20201;-61
2023/06/01 01:28:02;;;;;;;10.23;6.53;;;11.90;99.90;;;;;;5079512;28;20465;-61
2023/06/01 01:30:30;;;;;;;9.77;6.10;;;11.90;99.90;;;;;;5080055;28;20728;-61
2023/06/01 01:32:59;;;;;;;13.43;7.50;;;11.90;99.90;;;;;;5053807;28;20406;-62
2023/06/01 01:35:27;;;;;;;12.70;7.50;;;11.90;99.90;;;;;;5075662;28;20200;-61
2023/06/01 01:37:55;;;;;;;11.97;7.13;;;11.80;99.90;;;;;;5080074;28;20230;-61
2023/06/01 01:40:22;;;;;;;13.77;6.63;;;11.80;99.90;;;;;;5074015;28;20191;-61
2023/06/01 01:42:51;;;;;;;12.93;6.47;;;11.90;99.90;;;;;;5052649;28;20600;-61
2023/06/01 01:45:18;;;;;;;15.90;6.30;;;11.90;99.90;;;;;;5087555;28;20716;-61
2023/06/01 01:48:33;;;;;;;8.97;6.30;;;11.90;99.90;;;;;;5084610;28;20198;-60
2023/06/01 01:51:10;;;;;;;10.87;5.83;;;11.90;99.90;;;;;;5013037;28;20209;-61
2023/06/01 01:53:39;;;;;;;9.60;6.37;;;11.80;99.90;;;;;;5057792;28;20228;-61
2023/06/01 01:56:07;;;;;;;15.43;6.77;;;11.80;99.90;;;;;;5074723;28;20199;-61
2023/06/01 01:58:35;;;;;;;11.77;5.83;;;11.70;99.90;;;;;;5074631;28;20229;-62
2023/06/01 02:01:03;;;;;;;10.63;5.80;;;11.60;99.90;;;;;;5073786;28;20260;-61
2023/06/01 02:03:30;;;;;;;9.50;5.87;;;11.70;99.90;;;;;;5072894;28;20271;-61
2023/06/01 02:05:57;;;;;;;12.53;6.07;;;11.70;99.90;;;;;;5075214;28;20196;-61
2023/06/01 02:08:23;;;;;;;12.23;5.73;;;11.80;99.90;;;;;;5076595;28;20205;-61
2023/06/01 02:10:50;;;;;;;11.10;6.20;;;11.90;99.90;;;;;;5075621;28;20206;-61
2023/06/01 02:13:17;;;;;;;8.67;5.80;;;11.90;99.90;;;;;;5074108;28;20231;-61
2023/06/01 02:15:44;;;;;;;9.43;5.37;;;12.00;99.90;;;;;;5075292;28;20299;-60
2023/06/01 02:18:11;;;;;;;12.33;5.90;;;11.90;99.90;;;;;;5075379;28;20400;-61
2023/06/01 02:20:38;;;;;;;13.57;6.53;;;11.90;99.90;;;;;;5074611;28;20203;-61
2023/06/01 02:23:05;;;;;;;9.90;5.67;;;11.80;99.90;;;;;;5077321;28;20814;-61
2023/06/01 02:25:32;;;;;;;9.37;5.47;;;11.90;99.90;;;;;;5078957;28;20263;-61
2023/06/01 02:27:58;;;;;;;8.87;5.40;;;12.10;99.90;;;;;;5078898;28;21119;-64
2023/06/01 02:30:25;;;;;;;8.80;5.57;;;11.90;99.90;;;;;;5074594;28;20256;-61
2023/06/01 02:32:52;;;;;;;10.90;6.03;;;11.80;99.90;;;;;;5075770;28;20600;-60
2023/06/01 02:35:19;;;;;;;8.57;5.70;;;11.90;99.90;;;;;;5071220;28;20334;-60
2023/06/01 02:37:46;;;;;;;10.83;5.90;;;12.00;99.90;;;;;;5077057;28;20216;-61
2023/06/01 02:40:13;;;;;;;8.00;5.40;;;11.90;99.90;;;;;;5079790;28;20639;-61
2023/06/01 02:42:40;;;;;;;10.07;5.70;;;12.00;99.90;;;;;;5076956;28;20209;-61
2023/06/01 02:45:08;;;;;;;12.57;5.97;;;11.80;99.90;;;;;;5076948;28;20209;-61
2023/06/01 02:47:35;;;;;;;8.00;5.53;;;11.80;99.90;;;;;;5078756;28;20641;-61
2023/06/01 02:50:04;;;;;;;10.97;5.97;;;11.60;99.90;;;;;;5074030;28;20264;-61
2023/06/01 02:52:32;;;;;;;11.27;6.50;;;11.50;99.90;;;;;;5073624;28;20229;-61
2023/06/01 02:54:58;;;;;;;10.23;4.93;;;11.60;99.90;;;;;;5060072;28;20291;-61
2023/06/01 02:57:25;;;;;;;13.53;6.13;;;11.60;99.90;;;;;;5073023;28;20221;-60
2023/06/01 02:59:52;;;;;;;9.23;5.70;;;11.60;99.90;;;;;;5079399;28;20666;-61
2023/06/01 03:02:19;;;;;;;10.27;5.83;;;11.60;99.90;;;;;;5073721;28;20196;-61
2023/06/01 03:04:48;;;;;;;9.87;5.67;;;11.60;99.90;;;;;;5073507;28;20255;-63
2023/06/01 03:07:15;;;;;;;8.33;5.07;;;11.50;99.90;;;;;;5075901;28;20248;-61
2023/06/01 03:09:42;;;;;;;9.40;5.77;;;11.40;99.90;;;;;;5082809;28;20231;-60
2023/06/01 03:12:09;;;;;;;8.07;5.47;;;11.40;99.90;;;;;;5077670;28;20665;-61
2023/06/01 03:14:36;;;;;;;18.80;6.30;;;11.30;99.90;;;;;;5061873;28;20236;-60
2023/06/01 03:17:03;;;;;;;13.67;5.33;;;11.40;99.90;;;;;;5073846;28;20288;-61
2023/06/01 03:19:30;;;;;;;9.67;5.87;;;11.50;99.90;;;;;;5074263;28;20284;-60
2023/06/01 03:21:57;;;;;;;10.17;4.80;;;11.70;99.90;;;;;;5076669;28;20213;-61
2023/06/01 03:24:26;;;;;;;8.90;5.47;;;11.70;99.90;;;;;;5082260;28;20586;-63
2023/06/01 03:26:53;;;;;;;8.93;5.27;;;11.50;99.90;;;;;;5061798;28;20650;-61
2023/06/01 03:29:20;;;;;;;12.23;5.93;;;11.50;99.90;;;;;;5080237;28;20191;-61
2023/06/01 03:31:47;;;;;;;9.63;5.37;;;11.40;99.90;;;;;;5079012;28;20251;-61
2023/06/01 03:34:14;;;;;;;12.03;5.77;;;11.60;99.90;;;;;;5077760;28;20238;-61
2023/06/01 03:36:41;;;;;;;10.87;5.23;;;11.80;99.90;;;;;;5075609;28;20616;-61
2023/06/01 03:39:08;;;;;;;8.57;5.07;;;11.70;99.90;;;;;;5080181;28;20251;-61
2023/06/01 03:41:35;;;;;;;6.90;5.37;;;11.60;99.90;;;;;;5076625;28;21954;-61
2023/06/01 03:44:02;;;;;;;7.57;4.70;;;11.40;99.90;;;;;;5073119;28;20217;-61
2023/06/01 03:46:29;;;;;;;8.13;5.27;;;11.40;99.90;;;;;;5075728;28;20206;-61
2023/06/01 03:48:56;;;;;;;8.30;5.30;;;11.60;99.90;;;;;;5077975;28;20282;-61
2023/06/01 03:51:23;;;;;;;7.83;5.17;;;11.80;99.90;;;;;;5079373;28;20211;-60
2023/06/01 03:53:51;;;;;;;10.80;5.77;;;11.70;99.90;;;;;;5075328;28;20197;-60
2023/06/01 03:56:19;;;;;;;8.97;6.47;;;11.70;99.90;;;;;;5078013;28;20205;-61
2023/06/01 03:58:46;;;;;;;10.13;5.83;;;11.80;99.90;;;;;;5079490;28;20220;-61
2023/06/01 04:01:16;;;;;;;10.07;5.33;;;11.60;99.90;;;;;;5083073;28;20205;-61
2023/06/01 04:03:44;;;;;;;7.77;5.23;;;11.80;99.90;;;;;;5079631;28;20219;-61
2023/06/01 04:06:17;;;;;;;9.83;5.67;;;11.90;99.90;;;;;;5064201;28;20247;-61
2023/06/01 04:08:48;;;;;;;11.77;5.63;;;11.60;99.90;;;;;;5079156;28;20684;-61
2023/06/01 04:11:16;;;;;;;8.00;5.47;;;11.70;99.90;;;;;;5083756;28;20206;-62
2023/06/01 04:13:44;;;;;;;8.90;5.57;;;11.60;99.90;;;;;;5060203;28;20205;-63
2023/06/01 04:16:11;;;;;;;11.97;5.53;;;11.70;99.90;;;;;;5079547;28;20664;-65
2023/06/01 04:18:37;;;;;;;10.00;5.33;;;11.90;99.90;;;;;;5082817;28;20967;-63
2023/06/01 04:21:06;;;;;;;8.97;5.33;;;11.90;99.90;;;;;;5079145;28;20584;-63
2023/06/01 04:23:33;;;;;;;9.83;5.30;;;11.70;99.90;;;;;;5070114;28;20257;-65
2023/06/01 04:26:00;;;;;;;8.47;5.43;;;11.70;99.90;;;;;;5059946;28;20204;-63
2023/06/01 04:28:27;;;;;;;7.00;5.43;;;11.90;99.90;;;;;;5083561;28;20206;-62
2023/06/01 04:30:55;;;;;;;8.13;5.23;;;11.70;99.90;;;;;;5080635;28;20290;-63
2023/06/01 04:33:22;;;;;;;10.30;5.27;;;11.60;99.90;;;;;;5080215;28;20237;-63
2023/06/01 04:35:49;;;;;;;9.70;5.93;;;11.50;99.90;;;;;;5079031;28;20195;-63
2023/06/01 04:38:16;;;;;;;9.10;5.67;;;11.50;99.90;;;;;;5082564;28;20271;-63
2023/06/01 04:40:44;;;;;;;7.90;5.67;;;11.50;99.90;;;;;;5081417;28;20294;-63
2023/06/01 04:43:12;;;;;;;10.47;5.80;;;11.40;99.90;;;;;;5083177;28;20203;-63
2023/06/01 04:45:39;;;;;;;10.20;6.00;;;11.60;99.90;;;;;;5080469;28;20521;-63
2023/06/01 04:48:08;;;;;;;13.67;6.20;;;11.40;99.90;;;;;;5080656;28;21832;-63
2023/06/01 04:50:35;;;;;;;13.63;6.70;;;11.70;99.90;;;;;;5078284;28;20230;-63
2023/06/01 04:53:02;;;;;;;12.20;6.40;;;11.70;99.90;;;;;;5077790;28;20209;-63
2023/06/01 04:55:30;;;;;;;10.33;6.67;;;11.70;99.90;;;;;;5072956;28;20364;-63
2023/06/01 04:57:58;;;;;;;7.97;5.70;;;11.90;99.90;;;;;;5062621;28;20224;-63
2023/06/01 05:00:25;;;;;;;10.40;6.13;;;11.90;99.90;;;;;;5056048;28;20265;-63
2023/06/01 05:02:52;;;;;;;8.90;6.43;;;11.90;99.90;;;;;;5074068;28;20209;-63
2023/06/01 05:05:19;;;;;;;8.67;5.67;;;11.90;99.90;;;;;;5056171;28;20208;-64
2023/06/01 05:07:46;;;;;;;11.97;6.27;;;11.70;99.90;;;;;;5054911;28;20640;-63
2023/06/01 05:10:14;;;;;;;11.23;6.33;;;11.80;99.90;;;;;;5055144;28;20244;-63
2023/06/01 05:12:40;;;;;;;9.07;6.40;;;12.00;99.90;;;;;;5074709;28;20239;-63
2023/06/01 05:15:08;;;;;;;10.20;6.33;;;11.80;99.90;;;;;;5064665;28;20242;-63
2023/06/01 05:17:38;;;;;;;12.40;6.73;;;11.70;99.90;;;;;;5073573;28;20228;-63
2023/06/01 05:20:08;;;;;;;8.67;6.20;;;11.70;99.90;;;;;;5056498;28;20284;-63
2023/06/01 05:22:36;;;;;;;10.27;5.97;;;11.70;99.90;;;;;;5074033;28;21051;-62
2023/06/01 05:25:05;;;;;;;10.80;5.90;;;11.60;99.90;;;;;;5079761;28;20274;-63
2023/06/01 05:27:32;;;;;;;9.47;5.97;;;11.60;99.90;;;;;;5082875;28;20201;-63
2023/06/01 05:30:00;;;;;;;9.90;5.97;;;11.60;99.90;;;;;;5082028;28;20248;-62
2023/06/01 05:32:27;;;;;;;10.03;6.17;;;11.70;99.90;;;;;;5083430;28;20257;-63
2023/06/01 05:34:54;;;;;;;10.63;5.80;;;11.60;99.90;;;;;;5078741;28;20279;-60
2023/06/01 05:37:21;;;;;;;11.27;6.97;;;11.60;99.90;;;;;;5061930;28;20673;-61
2023/06/01 05:39:47;;;;;;;12.10;6.40;;;11.80;99.90;;;;;;5081670;28;20191;-67
2023/06/01 05:42:14;;;;;;;13.23;6.43;;;11.80;99.90;;;;;;5078937;28;20201;-61
2023/06/01 05:44:41;;;;;;;12.23;6.40;;;11.70;99.90;;;;;;5080085;28;20671;-63
2023/06/01 05:47:08;;;;;;;13.73;6.80;;;11.90;99.90;;;;;;5079316;28;20200;-64
2023/06/01 05:49:36;;;;;;;10.97;5.87;;;11.90;99.90;;;;;;5082538;28;20196;-65
2023/06/01 05:52:04;;;;;;;13.13;6.67;;;11.90;99.90;;;;;;5081630;28;20669;-63
2023/06/01 05:54:31;;;;;;;11.80;6.77;;;12.00;99.90;;;;;;5075892;28;20636;-63
2023/06/01 05:56:58;;;;;;;10.87;6.10;;;12.10;99.90;;;;;;5072629;28;20372;-63
2023/06/01 05:59:25;;;;;;;9.10;5.87;;;12.30;99.90;;;;;;5076593;28;20692;-64
2023/06/01 06:01:52;;;;;;;9.50;6.27;;;12.50;99.90;;;;;;5065944;28;20199;-63
2023/06/01 06:04:19;;;;;;;8.67;6.30;;;12.50;99.90;;;;;;5079695;28;20227;-61
2023/06/01 06:06:46;;;;;;;13.20;7.23;;;12.70;99.90;;;;;;5064064;28;20534;-61
2023/06/01 06:09:13;;;;;;;12.77;6.10;;;12.80;99.90;;;;;;5087001;28;20229;-62
2023/06/01 06:11:41;;;;;;;12.50;6.43;;;12.50;99.90;;;;;;5088749;28;20212;-61
2023/06/01 06:14:11;;;;;;;8.93;7.03;;;12.60;99.90;;;;;;5088091;28;20248;-62
2023/06/01 06:16:38;;;;;;;10.47;6.90;;;12.60;99.90;;;;;;5080556;28;20219;-60
2023/06/01 06:19:05;;;;;;;9.47;6.63;;;12.70;99.90;;;;;;5075746;28;20216;-63
2023/06/01 06:21:32;;;;;;;9.17;6.30;;;12.80;99.90;;;;;;5061204;28;20548;-62
2023/06/01 06:23:59;;;;;;;8.83;6.30;;;12.80;99.90;;;;;;5079175;28;20294;-63
2023/06/01 06:26:29;;;;;;;11.77;7.17;;;12.90;99.90;;;;;;5080500;28;20647;-63
2023/06/01 06:28:56;;;;;;;10.00;6.10;;;13.20;99.90;;;;;;5063736;28;20759;-63
2023/06/01 06:31:23;;;;;;;9.80;6.47;;;13.40;99.90;;;;;;5081889;28;20248;-63
2023/06/01 06:33:51;;;;;;;12.53;7.70;;;13.10;99.90;;;;;;5050766;28;20250;-63
2023/06/01 06:36:18;;;;;;;12.97;7.03;;;12.70;99.90;;;;;;5077691;28;20368;-62
2023/06/01 06:38:45;;;;;;;13.07;7.30;;;12.70;99.90;;;;;;4713157;28;10000586;-63
2023/06/01 06:41:12;;;;;;;9.03;7.40;;;12.60;99.90;;;;;;5063776;28;20201;-62
2023/06/01 06:43:39;;;;;;;10.10;6.90;;;12.50;99.90;;;;;;5072414;28;20334;-63
2023/06/01 06:46:06;;;;;;;12.57;6.77;;;12.60;99.90;;;;;;5037858;28;20329;-63
2023/06/01 06:48:33;;;;;;;13.67;8.40;;;12.70;99.90;;;;;;5066484;28;20216;-63
2023/06/01 06:51:01;;;;;;;12.93;7.33;;;12.90;99.90;;;;;;5038572;28;20231;-63
2023/06/01 06:53:29;;;;;;;11.00;6.93;;;12.80;99.90;;;;;;5068317;28;20215;-63
2023/06/01 06:55:58;;;;;;;10.13;7.47;;;12.90;99.90;;;;;;5061336;28;20204;-64
2023/06/01 06:58:26;;;;;;;10.73;7.10;;;12.70;99.90;;;;;;5068589;28;20217;-62
2023/06/01 07:00:53;;;;;;;12.77;7.07;;;12.80;99.90;;;;;;5059065;28;21007;-62
2023/06/01 07:03:20;;;;;;;10.43;6.53;;;12.80;99.90;;;;;;5032414;28;20201;-62
2023/06/01 07:05:48;;;;;;;13.00;6.97;;;13.10;99.90;;;;;;5049840;28;20238;-63
2023/06/01 07:08:15;;;;;;;10.87;7.70;;;13.00;99.90;;;;;;5053112;28;20353;-62
2023/06/01 07:10:42;;;;;;;11.50;6.67;;;13.20;99.90;;;;;;5080351;28;20572;-62
2023/06/01 07:13:09;;;;;;;10.10;7.07;;;13.80;99.90;;;;;;5072416;28;20235;-62
2023/06/01 07:15:35;;;;;;;10.27;7.23;;;13.90;99.90;;;;;;5054042;28;20208;-62
2023/06/01 07:18:02;;;;;;;12.30;7.70;;;14.10;99.90;;;;;;5057718;28;20215;-62
2023/06/01 07:20:29;;;;;;;12.10;7.33;;;13.90;99.90;;;;;;5059721;28;20282;-62
2023/06/01 07:22:56;;;;;;;10.20;6.77;;;13.80;99.90;;;;;;5054974;28;21700;-62
2023/06/01 07:25:23;;;;;;;10.20;7.30;;;13.70;99.90;;;;;;5081924;28;20889;-62
2023/06/01 07:27:51;;;;;;;10.43;6.60;;;13.80;99.90;;;;;;5081068;28;20196;-62
2023/06/01 07:30:18;;;;;;;14.50;7.27;;;14.30;99.90;;;;;;5077115;28;20253;-64
2023/06/01 07:32:45;;;;;;;13.17;6.80;;;13.90;99.90;;;;;;5072000;28;20220;-67
2023/06/01 07:35:12;;;;;;;14.03;7.23;;;13.80;99.90;;;;;;5071014;28;20210;-62
2023/06/01 07:37:40;;;;;;;10.23;6.77;;;13.70;99.90;;;;;;5077108;28;20211;-63
2023/06/01 07:40:08;;;;;;;13.20;7.50;;;13.70;99.90;;;;;;5073787;28;20256;-62
2023/06/01 07:42:35;;;;;;;11.07;7.03;;;13.80;99.90;;;;;;5078840;28;20249;-62
2023/06/01 07:45:02;;;;;;;11.07;6.83;;;13.90;99.90;;;;;;5056809;28;20208;-62
2023/06/01 07:47:29;;;;;;;10.37;6.93;;;13.90;99.90;;;;;;5077909;28;20208;-62
2023/06/01 07:49:57;;;;;;;15.90;6.67;;;14.30;99.90;;;;;;5059524;28;20508;-62
2023/06/01 07:52:24;;;;;;;9.53;6.77;;;14.40;99.90;;;;;;5078840;28;20219;-62
2023/06/01 07:54:51;;;;;;;11.47;6.87;;;14.60;99.90;;;;;;5074470;28;20219;-62
2023/06/01 07:57:18;;;;;;;11.63;7.00;;;14.60;99.90;;;;;;5076652;28;20786;-62
2023/06/01 07:59:45;;;;;;;9.67;6.73;;;15.00;99.90;;;;;;5057417;28;20221;-62
2023/06/01 08:02:13;;;;;;;14.80;7.20;;;15.20;99.90;;;;;;5070581;28;20189;-62
2023/06/01 08:04:40;;;;;;;12.07;6.90;;;15.10;99.90;;;;;;5074600;28;20629;-63
2023/06/01 08:07:08;;;;;;;8.70;6.27;;;15.80;99.90;;;;;;5073017;28;20223;-63
2023/06/01 08:09:38;;;;;;;12.40;6.60;;;16.00;99.90;;;;;;5068509;28;20208;-62
2023/06/01 08:12:05;;;;;;;13.60;6.13;;;15.30;99.90;;;;;;5068744;28;20565;-63
2023/06/01 08:14:33;;;;;;;8.77;6.03;;;15.50;99.90;;;;;;5031831;28;20214;-66
2023/06/01 08:17:01;;;;;;;9.93;6.50;;;15.70;99.90;;;;;;5062142;28;20298;-63
2023/06/01 08:19:29;;;;;;;12.90;6.70;;;15.90;99.90;;;;;;5065746;28;20557;-63
2023/06/01 08:21:55;;;;;;;11.57;6.37;;;15.90;99.90;;;;;;5069568;28;20615;-63
2023/06/01 08:24:24;;;;;;;13.00;6.53;;;16.40;99.90;;;;;;5076909;28;20201;-63
2023/06/01 08:26:56;;;;;;;13.10;6.60;;;16.20;99.90;;;;;;5039309;28;20199;-64
2023/06/01 08:29:23;;;;;;;11.23;6.90;;;15.90;99.90;;;;;;5051512;28;20335;-63
2023/06/01 08:32:07;;;;;;;9.70;7.47;;;16.40;99.90;;;;;;5076001;28;20430;-62
2023/06/01 08:34:34;;;;;;;10.27;6.53;;;17.10;99.90;;;;;;5059219;28;20201;-63
2023/06/01 08:37:01;;;;;;;13.13;6.87;;;17.40;99.90;;;;;;5072770;28;20546;-63
2023/06/01 08:39:28;;;;;;;14.80;6.83;;;17.10;99.90;;;;;;5075829;28;20225;-63
2023/06/01 08:42:07;;;;;;;9.43;6.27;;;16.70;99.90;;;;;;5064318;28;20929;-62
2023/06/01 08:44:40;;;;;;;9.37;6.87;;;16.70;99.90;;;;;;5068785;28;20292;-62
2023/06/01 08:47:08;;;;;;;12.27;6.63;;;16.50;99.90;;;;;;5074699;28;20283;-62
2023/06/01 08:49:36;;;;;;;10.53;6.40;;;16.30;99.90;;;;;;5073955;28;20287;-63
2023/06/01 08:52:09;;;;;;;12.60;7.07;;;16.60;99.90;;;;;;5076358;28;20200;-62
2023/06/01 08:54:37;;;;;;;13.77;6.53;;;16.90;99.90;;;;;;5076472;28;20244;-62
2023/06/01 08:57:09;;;;;;;11.37;6.73;;;17.20;99.90;;;;;;5074098;28;20699;-62
2023/06/01 08:59:36;;;;;;;11.33;6.20;;;16.80;99.90;;;;;;5057193;28;20235;-62
2023/06/01 09:02:03;;;;;;;8.87;6.47;;;17.50;99.90;;;;;;5074867;28;20318;-63
2023/06/01 09:04:31;;;;;;;10.77;7.00;;;17.40;99.90;;;;;;5054343;28;20761;-63
2023/06/01 09:06:58;;;;;;;9.80;6.30;;;17.70;99.90;;;;;;5073876;28;20212;-63
2023/06/01 09:09:25;;;;;;;12.73;6.70;;;18.30;99.90;;;;;;5076080;28;20624;-63
2023/06/01 09:12:17;;;;;;;9.67;6.30;;;18.40;99.90;;;;;;5035647;28;20219;-63
2023/06/01 09:14:44;;;;;;;12.97;7.53;;;17.80;99.90;;;;;;5073516;28;20216;-61
2023/06/01 09:17:24;;;;;;;11.83;7.60;;;17.30;99.90;;;;;;5059579;28;20195;-61
2023/06/01 09:19:57;;;;;;;13.20;6.63;;;17.40;99.90;;;;;;5082882;28;20270;-61
2023/06/01 09:22:24;;;;;;;13.17;7.80;;;18.20;99.90;;;;;;5080660;28;20722;-61
2023/06/01 09:24:56;;;;;;;12.50;7.30;;;18.30;99.90;;;;;;5076430;28;20197;-61
2023/06/01 09:27:23;;;;;;;11.43;7.30;;;18.30;99.90;;;;;;5079549;28;20655;-61
2023/06/01 09:29:59;;;;;;;12.10;6.90;;;17.70;99.90;;;;;;5080784;28;20254;-61
2023/06/01 09:32:26;;;;;;;11.47;7.37;;;18.10;99.90;;;;;;5080127;28;20670;-61
2023/06/01 09:34:56;;;;;;;13.90;8.93;;;17.70;99.90;;;;;;5083402;28;20678;-61
2023/06/01 09:37:23;;;;;;;11.60;7.10;;;17.70;99.90;;;;;;5078990;28;21728;-61
2023/06/01 09:39:50;;;;;;;12.60;7.13;;;18.40;99.90;;;;;;5079843;28;20311;-64
2023/06/01 09:42:17;;;;;;;14.20;6.90;;;17.70;99.90;;;;;;5071385;28;20201;-61
2023/06/01 09:44:45;;;;;;;8.47;6.80;;;18.20;99.90;;;;;;5074477;28;20216;-61
2023/06/01 09:47:12;;;;;;;10.10;6.67;;;18.40;99.90;;;;;;5078369;28;20202;-61
2023/06/01 09:49:42;;;;;;;10.67;7.63;;;18.50;99.90;;;;;;5082165;28;20286;-61
2023/06/01 09:52:09;;;;;;;11.27;7.37;;;18.20;99.90;;;;;;5064456;28;20614;-62
2023/06/01 09:54:48;;;;;;;9.47;7.10;;;18.80;99.90;;;;;;5067226;28;20214;-61
2023/06/01 09:57:23;;;;;;;10.00;7.13;;;18.80;99.90;;;;;;5079212;28;20201;-61
2023/06/01 09:59:50;;;;;;;10.70;6.87;;;18.60;99.90;;;;;;5082672;28;20658;-62
2023/06/01 10:02:22;;;;;;;11.87;7.23;;;18.80;99.90;;;;;;5064666;28;20196;-62
2023/06/01 10:04:54;;;;;;;10.23;7.20;;;19.30;99.90;;;;;;5082556;28;20206;-62
2023/06/01 10:07:22;;;;;;;9.77;6.27;;;19.50;99.90;;;;;;5083949;28;20206;-62
2023/06/01 10:09:58;;;;;;;12.40;6.90;;;19.60;99.90;;;;;;5081185;28;20203;-62
2023/06/01 10:12:26;;;;;;;8.97;6.90;;;18.60;99.90;;;;;;5083621;28;20542;-62
2023/06/01 10:14:52;;;;;;;8.40;6.40;;;18.80;99.90;;;;;;5079948;28;20305;-62
2023/06/01 10:17:20;;;;;;;12.60;7.20;;;19.10;99.90;;;;;;5077659;28;20649;-61
2023/06/01 10:19:47;;;;;;;13.30;7.50;;;19.20;99.90;;;;;;5082992;28;20616;-62
2023/06/01 10:22:15;;;;;;;11.43;6.90;;;19.20;99.90;;;;;;5084161;28;20246;-62
2023/06/01 10:24:43;;;;;;;9.40;6.73;;;19.20;99.90;;;;;;5065234;28;20218;-62
2023/06/01 10:27:35;;;;;;;9.33;7.37;;;18.70;99.90;;;;;;5084517;28;20569;-62
2023/06/01 10:30:03;;;;;;;12.70;6.67;;;18.60;99.90;;;;;;5041219;28;1094815;-61
2023/06/01 10:32:37;;;;;;;9.97;6.60;;;18.30;99.90;;;;;;5073354;28;20229;-62
2023/06/01 10:35:05;;;;;;;12.13;6.37;;;18.30;99.90;;;;;;5072376;28;20195;-62
2023/06/01 10:37:33;;;;;;;8.43;6.57;;;18.90;99.90;;;;;;5078615;28;20212;-62
2023/06/01 10:40:18;;;;;;;10.23;7.03;;;18.90;99.90;;;;;;5076929;28;20220;-62
2023/06/01 10:42:45;;;;;;;9.53;6.80;;;18.80;99.90;;;;;;5079846;28;20216;-62
2023/06/01 10:45:34;;;;;;;7.57;6.37;;;18.80;99.90;;;;;;5084493;28;20202;-62
2023/06/01 10:48:03;;;;;;;10.07;6.40;;;19.20;99.90;;;;;;5083053;28;20658;-61
2023/06/01 10:50:30;;;;;;;9.83;6.13;;;19.40;99.90;;;;;;5079085;28;20287;-61
2023/06/01 10:53:26;;;;;;;9.37;6.17;;;19.60;99.90;;;;;;5080026;28;20210;-60
2023/06/01 10:56:19;;;;;;;11.87;7.33;;;19.60;99.90;;;;;;5081558;28;20297;-60
2023/06/01 10:59:10;;;;;;;12.07;6.17;;;19.40;99.90;;;;;;5081621;28;20230;-61
2023/06/01 11:01:46;;;;;;;6.33;5.37;;;20.20;99.90;;;;;;5076054;28;20206;-59
2023/06/01 11:04:14;;;;;;;8.73;5.40;;;20.50;99.90;;;;;;5079653;28;20710;-59
2023/06/01 11:06:43;;;;;;;9.60;5.93;;;20.20;99.90;;;;;;5084463;28;20673;-58
2023/06/01 11:09:12;;;;;;;8.73;5.53;;;19.50;99.90;;;;;;5066174;28;20221;-59
2023/06/01 11:11:58;;;;;;;8.30;5.43;;;20.30;99.90;;;;;;5084869;28;20199;-59
2023/06/01 11:14:26;;;;;;;8.40;6.57;;;19.90;99.90;;;;;;5082960;28;20198;-59
2023/06/01 11:16:54;;;;;;;8.60;6.33;;;19.40;99.90;;;;;;5082900;28;20682;-58
2023/06/01 11:19:25;;;;;;;6.33;5.73;;;19.40;99.90;;;;;;5083154;28;20214;-59
2023/06/01 11:22:04;;;;;;;8.87;5.70;;;19.60;99.90;;;;;;5082027;28;20270;-59
2023/06/01 11:24:34;;;;;;;7.40;5.63;;;19.50;99.90;;;;;;5078139;28;20248;-60
2023/06/01 11:27:07;;;;;;;8.23;5.70;;;19.90;99.90;;;;;;5076709;28;20228;-58
2023/06/01 11:29:35;;;;;;;9.33;5.70;;;20.30;99.90;;;;;;5079302;28;20202;-59
2023/06/01 11:32:05;;;;;;;6.43;4.90;;;20.60;99.90;;;;;;5075633;28;20245;-59
2023/06/01 11:34:37;;;;;;;8.73;5.97;;;21.20;99.90;;;;;;5030980;28;20211;-58
2023/06/01 11:37:06;;;;;;;8.17;6.13;;;20.60;99.90;;;;;;5071547;28;20213;-59
2023/06/01 11:39:33;;;;;;;8.43;6.23;;;20.40;99.90;;;;;;5075780;28;20668;-61
2023/06/01 11:42:05;;;;;;;8.90;5.90;;;20.70;99.90;;;;;;5077358;28;20984;-58
2023/06/01 11:44:37;;;;;;;12.73;6.87;;;21.20;99.90;;;;;;5056943;28;20959;-59
2023/06/01 11:47:06;;;;;;;9.17;6.23;;;21.50;99.90;;;;;;5055644;28;20207;-58
2023/06/01 11:49:50;;;;;;;8.80;5.40;;;21.50;99.90;;;;;;5077026;28;21999;-59
2023/06/01 11:52:18;;;;;;;8.33;5.57;;;21.80;99.90;;;;;;5078081;28;20205;-59
2023/06/01 11:54:46;;;;;;;10.23;5.57;;;21.40;99.90;;;;;;5078379;28;20248;-59
2023/06/01 11:57:14;;;;;;;7.90;5.40;;;21.10;99.90;;;;;;5070210;28;20343;-59
2023/06/01 11:59:46;;;;;;;6.63;5.47;;;21.10;99.90;;;;;;5074708;28;20321;-59
2023/06/01 12:02:24;;;;;;;8.60;4.93;;;21.30;99.90;;;;;;5074954;28;20555;-59
2023/06/01 12:05:05;;;;;;;7.37;3.97;;;21.60;99.90;;;;;;5080096;28;20206;-61
2023/06/01 12:07:46;;;;;;;7.47;5.53;;;22.20;99.90;;;;;;5079380;28;20207;-59
2023/06/01 12:10:16;;;;;;;7.93;4.73;;;21.40;99.90;;;;;;5080480;28;20202;-59
2023/06/01 12:12:43;;;;;;;9.57;5.83;;;22.00;99.90;;;;;;5074866;28;20205;-59
2023/06/01 12:15:15;;;;;;;7.17;5.20;;;21.40;99.90;;;;;;5060412;28;20209;-59
2023/06/01 12:17:56;;;;;;;7.63;4.53;;;21.70;99.90;;;;;;5076786;28;20209;-59
2023/06/01 12:20:46;;;;;;;7.63;5.40;;;22.40;99.90;;;;;;5060190;28;20354;-60
2023/06/01 12:23:20;;;;;;;5.93;4.73;;;21.80;99.90;;;;;;5077485;28;20276;-59
2023/06/01 12:25:50;;;;;;;6.23;4.47;;;21.60;99.90;;;;;;5078324;28;20576;-59
2023/06/01 12:28:18;;;;;;;7.17;4.87;;;21.40;99.90;;;;;;5072009;28;20207;-59
2023/06/01 12:30:46;;;;;;;10.50;5.60;;;21.90;99.90;;;;;;5074724;28;20238;-60
2023/06/01 12:33:35;;;;;;;9.07;5.00;;;22.20;99.90;;;;;;5070518;28;21812;-59
2023/06/01 12:36:05;;;;;;;8.07;4.63;;;21.90;99.90;;;;;;5075417;28;20592;-59
2023/06/01 12:38:38;;;;;;;6.77;5.20;;;21.80;99.90;;;;;;5073513;28;20613;-59
2023/06/01 12:41:07;;;;;;;5.90;4.40;;;21.60;99.90;;;;;;5074482;28;20207;-60
2023/06/01 12:43:48;;;;;;;5.93;4.30;;;21.50;99.90;;;;;;5075434;28;20194;-59
2023/06/01 12:46:22;;;;;;;10.53;5.00;;;21.40;99.90;;;;;;5074904;28;20277;-61
2023/06/01 12:48:50;;;;;;;7.07;4.33;;;21.80;99.90;;;;;;5063486;28;20208;-60
2023/06/01 12:51:18;;;;;;;9.70;5.00;;;21.90;99.90;;;;;;5078837;28;20221;-60
2023/06/01 12:53:45;;;;;;;11.80;4.80;;;21.90;99.90;;;;;;5037850;28;22247;-60